createdAt,value
2022-10-11T00:01:36.340Z,2.85
2022-10-11T00:04:05.299Z,2.30
2022-10-11T00:07:02.649Z,2.70
2022-10-11T00:09:32.057Z,2.22
2022-10-11T00:12:03.115Z,3.08
2022-10-11T00:14:34.032Z,2.80
2022-10-11T00:17:02.943Z,3.00
2022-10-11T00:19:31.759Z,2.85
2022-10-11T00:22:01.145Z,3.35
2022-10-11T00:24:32.150Z,3.03
2022-10-11T00:27:03.060Z,3.38
2022-10-11T00:29:32.359Z,3.22
2022-10-11T00:32:01.589Z,3.03
2022-10-11T00:34:30.584Z,1.95
2022-10-11T00:36:59.813Z,2.33
2022-10-11T00:39:29.188Z,2.33
2022-10-11T00:41:58.079Z,2.30
2022-10-11T00:44:33.964Z,2.90
2022-10-11T00:47:06.017Z,3.28
2022-10-11T01:17:18.354Z,2.78
2022-10-11T01:20:03.736Z,2.10
2022-10-11T01:23:09.197Z,2.67
2022-10-11T01:25:47.080Z,2.92
2022-10-11T01:28:30.037Z,2.10
2022-10-11T01:31:05.495Z,2.85
2022-10-11T01:33:41.863Z,4.32
2022-10-11T01:36:41.355Z,2.95
2022-10-11T01:39:15.992Z,1.85
2022-10-11T01:41:50.004Z,2.60
2022-10-11T01:44:21.123Z,2.58
2022-10-11T01:46:52.245Z,2.78
2022-10-11T01:49:22.060Z,2.72
2022-10-11T01:51:53.988Z,2.40
2022-10-11T01:55:03.869Z,2.08
2022-10-11T01:57:45.513Z,2.10
2022-10-11T02:00:17.650Z,3.83
2022-10-11T02:03:03.508Z,2.90
2022-10-11T02:05:44.426Z,2.92
2022-10-11T02:08:20.201Z,2.80
2022-10-11T02:10:55.016Z,2.78
2022-10-11T02:13:28.448Z,2.63
2022-10-11T02:16:00.072Z,2.75
2022-10-11T02:18:36.222Z,2.30
2022-10-11T02:21:08.817Z,2.38
2022-10-11T02:23:42.164Z,2.75
2022-10-11T02:26:14.567Z,3.22
2022-10-11T02:28:48.693Z,2.28
2022-10-11T02:31:19.121Z,2.33
2022-10-11T02:33:54.857Z,2.03
2022-10-11T02:36:31.385Z,2.38
2022-10-11T02:39:05.092Z,2.83
2022-10-11T02:41:39.662Z,2.25
2022-10-11T02:44:13.066Z,3.17
2022-10-11T02:46:45.602Z,2.85
2022-10-11T02:49:17.486Z,3.03
2022-10-11T02:51:46.680Z,3.03
2022-10-11T02:54:16.102Z,2.45
2022-10-11T02:56:45.309Z,3.85
2022-10-11T02:59:14.263Z,3.10
2022-10-11T03:01:43.704Z,3.33
2022-10-11T03:04:17.525Z,3.80
2022-10-11T03:06:46.402Z,1.90
2022-10-11T03:09:15.783Z,3.00
2022-10-11T03:11:45.044Z,3.40
2022-10-11T03:14:14.316Z,3.05
2022-10-11T03:16:43.535Z,2.83
2022-10-11T03:19:19.307Z,2.70
2022-10-11T03:21:48.862Z,4.20
2022-10-11T03:24:17.698Z,3.67
2022-10-11T03:26:46.635Z,3.42
2022-10-11T03:29:16.378Z,4.28
2022-10-11T03:31:45.649Z,2.88
2022-10-11T03:34:16.102Z,3.67
2022-10-11T03:36:45.507Z,2.50
2022-10-11T03:39:16.863Z,2.83
2022-10-11T03:41:46.112Z,2.92
2022-10-11T03:44:15.170Z,3.72
2022-10-11T03:46:44.083Z,2.85
2022-10-11T03:49:13.236Z,2.50
2022-10-11T03:51:43.557Z,3.38
2022-10-11T03:54:12.712Z,4.10
2022-10-11T03:56:41.619Z,3.83
2022-10-11T03:59:10.859Z,2.50
2022-10-11T04:01:39.896Z,2.60
2022-10-11T04:04:09.006Z,3.10
2022-10-11T04:06:37.875Z,3.28
2022-10-11T04:09:08.171Z,3.33
2022-10-11T04:11:37.269Z,3.10
2022-10-11T04:14:07.167Z,4.82
2022-10-11T04:16:38.853Z,2.88
2022-10-11T04:19:07.702Z,3.88
2022-10-11T04:21:36.560Z,3.08
2022-10-11T04:24:06.677Z,5.38
2022-10-11T04:26:36.797Z,2.42
2022-10-11T04:29:06.176Z,3.42
2022-10-11T04:31:35.209Z,2.60
2022-10-11T04:34:04.263Z,3.33
2022-10-11T04:36:34.217Z,3.38
2022-10-11T04:39:03.085Z,3.33
2022-10-11T04:41:32.005Z,3.88
2022-10-11T04:44:02.511Z,2.42
2022-10-11T04:46:31.452Z,2.67
2022-10-11T04:49:02.821Z,2.90
2022-10-11T04:51:33.899Z,2.95
2022-10-11T04:54:07.446Z,2.65
2022-10-11T04:56:36.893Z,3.05
2022-10-11T04:59:07.349Z,3.25
2022-10-11T05:01:38.451Z,3.53
2022-10-11T05:04:07.775Z,3.83
2022-10-11T05:06:39.194Z,2.90
2022-10-11T05:09:07.944Z,4.15
2022-10-11T05:11:37.857Z,3.85
2022-10-11T05:14:11.682Z,3.88
2022-10-11T05:16:41.076Z,2.88
2022-10-11T05:19:10.504Z,3.35
2022-10-11T05:21:39.606Z,3.85
2022-10-11T05:24:09.587Z,4.75
2022-10-11T05:26:38.475Z,2.78
2022-10-11T05:29:07.409Z,2.00
2022-10-11T05:31:37.728Z,2.50
2022-10-11T05:34:09.517Z,3.45
2022-10-11T05:36:38.679Z,3.38
2022-10-11T05:39:07.836Z,2.45
2022-10-11T05:41:37.300Z,2.42
2022-10-11T05:44:09.722Z,3.67
2022-10-11T05:46:40.704Z,2.70
2022-10-11T05:49:10.090Z,2.95
2022-10-11T05:51:39.506Z,2.67
2022-10-11T05:54:10.864Z,2.53
2022-10-11T05:56:39.916Z,2.53
2022-10-11T05:59:09.481Z,2.33
2022-10-11T06:01:38.615Z,2.55
2022-10-11T06:04:09.244Z,2.42
2022-10-11T06:06:38.753Z,2.92
2022-10-11T06:09:07.796Z,2.65
2022-10-11T06:11:37.050Z,2.75
2022-10-11T06:14:06.016Z,3.83
2022-10-11T06:16:34.949Z,2.15
2022-10-11T06:19:04.619Z,2.28
2022-10-11T06:21:34.698Z,3.60
2022-10-11T06:24:03.863Z,2.83
2022-10-11T06:26:32.927Z,2.90
2022-10-11T06:29:02.359Z,2.63
2022-10-11T06:31:31.496Z,3.50
2022-10-11T06:34:00.698Z,2.95
2022-10-11T06:36:29.975Z,3.38
2022-10-11T06:39:01.733Z,3.22
2022-10-11T06:41:32.380Z,3.50
2022-10-11T06:44:01.581Z,2.78
2022-10-11T06:46:32.714Z,3.95
2022-10-11T06:49:01.835Z,3.60
2022-10-11T06:51:31.179Z,3.05
2022-10-11T06:54:02.062Z,3.10
2022-10-11T06:56:32.737Z,2.70
2022-10-11T06:59:01.987Z,2.70
2022-10-11T07:01:32.812Z,3.20
2022-10-11T07:04:03.132Z,3.58
2022-10-11T07:06:32.547Z,2.80
2022-10-11T07:09:03.019Z,2.80
2022-10-11T07:11:34.807Z,3.72
2022-10-11T07:14:07.925Z,3.10
2022-10-11T07:16:37.839Z,3.28
2022-10-11T07:19:07.953Z,3.55
2022-10-11T07:21:37.284Z,3.35
2022-10-11T07:24:08.182Z,2.65
2022-10-11T07:26:38.880Z,4.22
2022-10-11T07:29:09.574Z,3.03
2022-10-11T07:31:40.720Z,3.72
2022-10-11T07:34:11.187Z,3.08
2022-10-11T07:36:39.953Z,4.55
2022-10-11T07:39:12.996Z,4.13
2022-10-11T07:41:45.954Z,3.63
2022-10-11T07:44:15.923Z,2.97
2022-10-11T07:46:47.498Z,3.72
2022-10-11T07:49:20.002Z,3.33
2022-10-11T07:51:48.846Z,3.70
2022-10-11T07:54:19.464Z,4.90
2022-10-11T07:56:48.860Z,3.75
2022-10-11T07:59:18.136Z,5.05
2022-10-11T08:01:48.302Z,3.13
2022-10-11T08:04:19.671Z,4.25
2022-10-11T08:06:53.343Z,4.38
2022-10-11T08:09:24.033Z,4.18
2022-10-11T08:11:56.009Z,4.20
2022-10-11T08:14:25.060Z,4.13
2022-10-11T08:17:22.505Z,4.70
2022-10-11T08:20:22.421Z,5.70
2022-10-11T08:22:53.869Z,3.42
2022-10-11T08:25:24.303Z,5.28
2022-10-11T08:27:52.980Z,3.65
2022-10-11T08:30:21.846Z,3.70
2022-10-11T08:32:50.848Z,3.78
2022-10-11T08:35:19.626Z,3.72
2022-10-11T08:37:48.826Z,7.75
2022-10-11T08:40:19.045Z,4.70
2022-10-11T08:42:56.027Z,6.00
2022-10-11T08:45:32.621Z,3.70
2022-10-11T08:48:15.459Z,6.03
2022-10-11T08:51:16.217Z,4.68
2022-10-11T08:54:18.006Z,3.97
2022-10-11T08:56:48.135Z,3.13
2022-10-11T08:59:30.330Z,3.13
2022-10-11T09:02:55.828Z,3.20
2022-10-11T09:05:37.449Z,2.95
2022-10-11T09:08:53.763Z,4.05
2022-10-11T09:11:39.711Z,3.40
2022-10-11T09:15:04.268Z,2.42
2022-10-11T09:18:12.690Z,3.97
2022-10-11T09:21:21.112Z,4.47
2022-10-11T09:24:11.060Z,3.97
2022-10-11T09:26:52.146Z,4.72
2022-10-11T09:29:33.423Z,2.97
2022-10-11T09:32:04.390Z,3.65
2022-10-11T09:34:40.327Z,3.17
2022-10-11T09:37:22.199Z,2.97
2022-10-11T09:39:56.975Z,2.90
2022-10-11T09:42:25.693Z,3.83
2022-10-11T09:44:55.027Z,2.70
2022-10-11T09:47:28.159Z,3.40
2022-10-11T09:50:01.270Z,2.72
2022-10-11T09:52:31.399Z,2.60
2022-10-11T09:55:33.619Z,4.13
2022-10-11T09:58:07.744Z,3.60
2022-10-11T10:01:08.601Z,4.45
2022-10-11T10:04:36.831Z,3.03
2022-10-11T10:07:13.986Z,3.10
2022-10-11T10:09:44.057Z,2.55
2022-10-11T10:12:23.869Z,3.60
2022-10-11T10:15:00.334Z,4.65
2022-10-11T10:17:32.695Z,2.67
2022-10-11T10:20:02.267Z,3.13
2022-10-11T10:22:36.831Z,2.15
2022-10-11T10:25:09.411Z,2.13
2022-10-11T10:28:18.417Z,2.53
2022-10-11T10:30:54.574Z,2.35
2022-10-11T10:33:55.744Z,3.05
2022-10-11T10:36:30.325Z,2.08
2022-10-11T10:39:08.254Z,2.85
2022-10-11T10:41:39.398Z,3.35
2022-10-11T10:44:11.602Z,3.05
2022-10-11T10:47:03.560Z,3.63
2022-10-11T10:49:53.713Z,2.75
2022-10-11T10:52:44.566Z,2.92
2022-10-11T10:55:23.803Z,3.28
2022-10-11T10:58:42.696Z,3.85
2022-10-11T11:01:17.558Z,1.90
2022-10-11T11:03:52.777Z,4.20
2022-10-11T11:07:00.544Z,2.42
2022-10-11T11:09:40.479Z,2.55
2022-10-11T11:12:27.512Z,2.58
2022-10-11T11:15:07.548Z,3.75
2022-10-11T11:17:52.136Z,2.83
2022-10-11T11:20:55.054Z,2.72
2022-10-11T11:23:33.546Z,3.20
2022-10-11T11:26:11.477Z,2.47
2022-10-11T11:29:02.433Z,2.20
2022-10-11T11:31:59.854Z,3.85
2022-10-11T11:35:01.818Z,3.15
2022-10-11T11:37:35.771Z,2.63
2022-10-11T11:40:14.863Z,4.07
2022-10-11T11:42:49.768Z,2.20
2022-10-11T11:48:46.138Z,1.75
2022-10-11T11:51:20.571Z,2.60
2022-10-11T11:53:56.822Z,2.88
2022-10-11T11:56:59.124Z,2.33
2022-10-11T11:59:37.308Z,2.85
2022-10-11T12:02:34.539Z,2.58
2022-10-11T12:05:34.045Z,3.28
2022-10-11T12:08:07.149Z,2.58
2022-10-11T12:10:40.068Z,3.20
2022-10-11T12:13:22.650Z,3.40
2022-10-11T12:16:11.984Z,4.10
2022-10-11T12:19:17.646Z,2.25
2022-10-11T12:21:48.007Z,3.03
2022-10-11T12:24:24.429Z,2.13
2022-10-11T12:26:56.520Z,3.22
2022-10-11T12:29:54.661Z,2.33
2022-10-11T12:32:52.179Z,3.22
2022-10-11T12:36:30.735Z,2.45
2022-10-11T12:39:53.169Z,2.63
2022-10-11T12:42:45.845Z,2.80
2022-10-11T12:46:21.911Z,3.33
2022-10-11T12:49:00.360Z,3.20
2022-10-11T12:51:41.405Z,2.20
2022-10-11T12:54:50.474Z,3.17
2022-10-11T12:58:04.326Z,2.88
2022-10-11T13:01:25.792Z,3.00
2022-10-11T13:04:04.536Z,2.50
2022-10-11T13:10:49.217Z,2.22
2022-10-11T13:13:53.549Z,2.38
2022-10-11T13:17:00.313Z,3.22
2022-10-11T13:20:00.656Z,2.65
2022-10-11T13:22:35.526Z,2.53
2022-10-11T13:25:06.473Z,2.67
2022-10-11T13:27:39.418Z,2.58
2022-10-11T13:30:18.807Z,3.05
2022-10-11T13:32:48.709Z,2.33
2022-10-11T13:35:25.169Z,2.17
2022-10-11T13:37:56.688Z,2.20
2022-10-11T13:40:26.256Z,2.20
2022-10-11T13:43:51.711Z,2.55
2022-10-11T13:46:24.100Z,2.75
2022-10-11T13:49:29.035Z,2.10
2022-10-11T13:52:01.245Z,2.90
2022-10-11T13:55:06.032Z,2.20
2022-10-11T13:57:38.596Z,2.35
2022-10-11T14:00:38.035Z,1.92
2022-10-11T14:03:22.967Z,2.95
2022-10-11T14:05:57.217Z,3.00
2022-10-11T14:08:35.750Z,2.65
2022-10-11T14:11:35.506Z,1.95
2022-10-11T14:14:51.251Z,2.00
2022-10-11T14:17:24.825Z,2.28
2022-10-11T14:20:15.498Z,2.13
2022-10-11T14:22:45.598Z,1.92
2022-10-11T14:25:14.600Z,2.17
2022-10-11T14:28:14.078Z,1.40
2022-10-11T14:30:45.463Z,2.20
2022-10-11T14:33:14.960Z,2.05
2022-10-11T14:35:45.095Z,2.50
2022-10-11T14:38:14.052Z,1.85
2022-10-11T14:40:50.947Z,2.63
2022-10-11T14:43:22.776Z,3.25
2022-10-11T14:45:52.009Z,3.13
2022-10-11T14:48:53.761Z,2.72
2022-10-11T14:51:20.232Z,2.67
2022-10-11T14:53:52.599Z,2.42
2022-10-11T14:56:28.961Z,2.13
2022-10-11T14:59:00.659Z,2.42
2022-10-11T15:01:32.304Z,2.72
2022-10-11T15:04:01.537Z,2.63
2022-10-11T15:07:07.583Z,1.88
2022-10-11T15:09:37.048Z,2.35
2022-10-11T15:12:06.525Z,2.10
2022-10-11T15:14:35.369Z,2.25
2022-10-11T15:17:04.948Z,2.70
2022-10-11T15:20:03.293Z,2.15
2022-10-11T15:22:34.446Z,2.55
2022-10-11T15:25:06.894Z,2.38
2022-10-11T15:27:35.876Z,3.15
2022-10-11T15:30:08.797Z,2.78
2022-10-11T15:32:37.586Z,2.97
2022-10-11T15:35:07.562Z,1.80
2022-10-11T15:37:37.764Z,1.55
2022-10-11T15:40:17.644Z,8.00
2022-10-11T15:42:46.871Z,5.57
2022-10-11T15:45:16.704Z,3.47
2022-10-11T15:47:45.946Z,2.80
2022-10-11T15:50:23.998Z,3.40
2022-10-11T15:52:54.697Z,2.70
2022-10-11T15:55:23.474Z,2.30
2022-10-11T15:57:52.900Z,2.05
2022-10-11T16:00:22.467Z,2.58
2022-10-11T16:02:52.563Z,2.63
2022-10-11T16:05:50.409Z,3.38
2022-10-11T16:08:21.618Z,2.40
2022-10-11T16:10:52.044Z,2.75
2022-10-11T16:13:21.769Z,3.72
2022-10-11T16:15:51.146Z,3.88
2022-10-11T16:18:22.507Z,2.95
2022-10-11T16:20:52.580Z,3.20
2022-10-11T16:23:23.862Z,2.33
2022-10-11T16:25:59.329Z,2.42
2022-10-11T16:28:29.156Z,2.33
2022-10-11T16:31:01.668Z,2.30
2022-10-11T16:33:31.884Z,3.63
2022-10-11T16:36:21.440Z,3.20
2022-10-11T16:38:51.937Z,2.97
2022-10-11T16:41:21.850Z,2.83
2022-10-11T16:43:52.654Z,3.00
2022-10-11T16:46:22.461Z,3.03
2022-10-11T16:48:51.378Z,3.63
2022-10-11T16:51:20.660Z,4.13
2022-10-11T16:53:51.539Z,3.65
2022-10-11T16:56:22.823Z,4.13
2022-10-11T16:58:53.512Z,3.17
2022-10-11T17:01:23.180Z,2.83
2022-10-11T17:03:52.507Z,2.58
2022-10-11T17:06:24.315Z,2.80
2022-10-11T17:08:55.577Z,4.13
2022-10-11T17:11:24.804Z,2.53
2022-10-11T17:13:54.444Z,2.47
2022-10-11T17:16:23.787Z,3.42
2022-10-11T17:18:52.930Z,2.65
2022-10-11T17:21:23.566Z,3.17
2022-10-11T17:23:54.091Z,2.63
2022-10-11T17:26:26.323Z,2.78
2022-10-11T17:28:56.021Z,2.63
2022-10-11T17:31:25.402Z,2.42
2022-10-11T17:33:54.986Z,2.72
2022-10-11T17:36:27.955Z,3.33
2022-10-11T17:38:59.108Z,2.58
2022-10-11T17:41:31.799Z,3.78
2022-10-11T17:44:02.886Z,3.47
2022-10-11T17:46:32.979Z,4.18
2022-10-11T17:49:09.446Z,2.70
2022-10-11T17:51:38.937Z,2.80
2022-10-11T17:54:13.428Z,2.92
2022-10-11T17:56:43.582Z,3.72
2022-10-11T17:59:18.248Z,3.65
2022-10-11T18:01:47.491Z,3.00
2022-10-11T18:04:17.838Z,2.85
2022-10-11T18:06:48.975Z,2.42
2022-10-11T18:09:19.927Z,3.72
2022-10-11T18:11:49.899Z,2.70
2022-10-11T18:14:21.204Z,3.08
2022-10-11T18:16:50.522Z,4.15
2022-10-11T18:19:19.587Z,3.40
2022-10-11T18:21:48.639Z,4.28
2022-10-11T18:24:19.217Z,4.10
2022-10-11T18:26:48.254Z,4.93
2022-10-11T18:29:19.426Z,4.35
2022-10-11T18:31:48.143Z,8.10
2022-10-11T18:34:16.827Z,20.75
2022-10-11T18:36:50.206Z,12.65
2022-10-11T18:39:21.820Z,10.10
2022-10-11T18:41:50.539Z,6.80
2022-10-11T18:44:19.287Z,5.35
2022-10-11T18:46:51.197Z,5.13
2022-10-11T18:49:19.921Z,4.57
2022-10-11T18:51:49.079Z,5.60
2022-10-11T18:54:21.374Z,4.95
2022-10-11T18:56:50.544Z,5.32
2022-10-11T18:59:20.426Z,4.85
2022-10-11T19:01:52.157Z,5.15
2022-10-11T19:04:21.924Z,4.15
2022-10-11T19:06:53.307Z,4.25
2022-10-11T19:09:26.491Z,4.13
2022-10-11T19:11:59.271Z,4.05
2022-10-11T19:14:30.420Z,3.60
2022-10-11T19:16:59.450Z,4.82
2022-10-11T19:19:30.810Z,4.15
2022-10-11T19:22:00.159Z,2.65
2022-10-11T19:24:31.374Z,3.40
2022-10-11T19:27:02.787Z,2.88
2022-10-11T19:29:33.301Z,2.50
2022-10-11T19:32:03.132Z,3.25
2022-10-11T19:34:32.766Z,3.22
2022-10-11T19:37:03.478Z,3.13
2022-10-11T19:39:33.823Z,3.30
2022-10-11T19:42:04.339Z,3.13
2022-10-11T19:44:38.698Z,4.53
2022-10-11T19:47:10.114Z,3.55
2022-10-11T19:49:40.916Z,3.63
2022-10-11T19:52:09.923Z,5.03
2022-10-11T19:54:42.776Z,4.82
2022-10-11T19:57:11.640Z,4.80
2022-10-11T19:59:42.925Z,4.43
2022-10-11T20:02:13.715Z,5.85
2022-10-11T20:04:57.755Z,3.60
2022-10-11T20:07:28.993Z,3.72
2022-10-11T20:10:01.719Z,5.78
2022-10-11T20:12:31.107Z,4.63
2022-10-11T20:14:59.971Z,3.90
2022-10-11T20:17:48.345Z,5.68
2022-10-11T20:20:17.588Z,4.47
2022-10-11T20:22:46.531Z,4.88
2022-10-11T20:25:16.798Z,5.78
2022-10-11T20:27:46.433Z,4.70
2022-10-11T20:30:15.084Z,4.35
2022-10-11T20:32:43.852Z,48.17
2022-10-11T20:35:16.406Z,58.50
2022-10-11T20:37:45.126Z,93.05
2022-10-11T20:40:17.543Z,43.67
2022-10-11T20:42:46.351Z,34.17
2022-10-11T20:45:15.028Z,30.27
2022-10-11T20:47:43.750Z,24.27
2022-10-11T20:50:12.551Z,17.07
2022-10-11T20:52:41.341Z,14.85
2022-10-11T20:55:12.607Z,12.43
2022-10-11T20:57:42.646Z,14.35
2022-10-11T21:00:12.447Z,7.15
2022-10-11T21:02:41.061Z,6.25
2022-10-11T21:05:10.010Z,4.32
2022-10-11T21:07:44.703Z,4.53
2022-10-11T21:10:13.708Z,6.25
2022-10-11T21:12:43.874Z,4.25
2022-10-11T21:15:13.199Z,4.13
2022-10-11T21:17:41.791Z,4.15
2022-10-11T21:20:11.193Z,4.47
2022-10-11T21:22:39.864Z,4.10
2022-10-11T21:25:08.645Z,4.38
2022-10-11T21:27:37.601Z,3.97
2022-10-11T21:30:09.414Z,4.40
2022-10-11T21:32:38.161Z,4.72
2022-10-11T21:35:07.013Z,4.05
2022-10-11T21:37:36.200Z,4.60
2022-10-11T21:40:08.319Z,4.07
2022-10-11T21:42:37.238Z,3.95
2022-10-11T21:45:08.542Z,4.50
2022-10-11T21:47:40.660Z,3.88
2022-10-11T21:50:09.748Z,4.13
2022-10-11T21:52:38.408Z,4.38
2022-10-11T21:55:07.384Z,5.45
2022-10-11T21:57:36.068Z,5.25
2022-10-11T22:00:08.516Z,5.00
2022-10-11T22:02:42.025Z,3.67
2022-10-11T22:05:10.741Z,5.18
2022-10-11T22:07:42.097Z,4.95
2022-10-11T22:10:10.825Z,5.15
2022-10-11T22:12:39.503Z,4.22
2022-10-11T22:15:11.257Z,4.88
2022-10-11T22:17:39.999Z,5.63
2022-10-11T22:20:09.607Z,4.05
2022-10-11T22:22:38.466Z,4.45
2022-10-11T22:25:08.135Z,4.00
2022-10-11T22:27:39.605Z,4.07
2022-10-11T22:30:11.140Z,5.35
2022-10-11T22:32:39.969Z,4.90
2022-10-11T22:35:09.300Z,5.38
2022-10-11T22:37:38.621Z,5.25
2022-10-11T22:40:08.881Z,4.55
2022-10-11T22:42:39.928Z,5.00
2022-10-11T22:45:15.539Z,5.97
2022-10-11T22:47:46.561Z,5.18
2022-10-11T22:50:15.246Z,5.85
2022-10-11T22:52:43.909Z,4.72
2022-10-11T22:55:17.529Z,3.97
2022-10-11T22:57:48.550Z,4.20
2022-10-11T23:00:19.199Z,4.55
2022-10-11T23:02:48.116Z,4.07
2022-10-11T23:05:16.821Z,4.80
2022-10-11T23:07:47.873Z,4.07
2022-10-11T23:10:17.358Z,3.65
2022-10-11T23:12:48.604Z,6.10
2022-10-11T23:15:18.826Z,6.63
2022-10-11T23:17:47.709Z,5.07
2022-10-11T23:20:16.592Z,7.03
2022-10-11T23:22:45.951Z,5.10
2022-10-11T23:25:14.899Z,5.85
2022-10-11T23:27:44.060Z,6.40
2022-10-11T23:30:14.584Z,6.47
2022-10-11T23:32:44.705Z,6.00
2022-10-11T23:35:13.365Z,4.97
2022-10-11T23:37:41.987Z,6.00
2022-10-11T23:40:13.498Z,5.03
2022-10-11T23:42:43.105Z,4.80
2022-10-11T23:45:12.291Z,4.53
2022-10-11T23:47:41.127Z,4.88
2022-10-11T23:50:11.827Z,6.60
2022-10-11T23:52:40.479Z,4.57
2022-10-11T23:55:09.965Z,5.53
2022-10-11T23:57:40.848Z,4.88
